sensor_id;sensor_type;location;lat;lon;timestamp;P1;durP1;ratioP1;P2;durP2;ratioP2
13250;SDS011;6692;50.710;7.180;2022-09-04T00:00:27;773.40;;;734.57;;
13250;SDS011;6692;50.710;7.180;2022-09-04T00:05:04;761.93;;;724.17;;
13250;SDS011;6692;50.710;7.180;2022-09-04T00:07:11;802.03;;;760.63;;
13250;SDS011;6692;50.710;7.180;2022-09-04T00:09:14;806.00;;;763.03;;
13250;SDS011;6692;50.710;7.180;2022-09-04T00:11:28;814.13;;;771.43;;
13250;SDS011;6692;50.710;7.180;2022-09-04T00:13:37;799.70;;;758.03;;
13250;SDS011;6692;50.710;7.180;2022-09-04T00:15:38;832.60;;;787.73;;
13250;SDS011;6692;50.710;7.180;2022-09-04T00:17:43;836.13;;;790.03;;
13250;SDS011;6692;50.710;7.180;2022-09-04T00:19:47;838.73;;;793.40;;
13250;SDS011;6692;50.710;7.180;2022-09-04T00:22:11;830.43;;;786.00;;
13250;SDS011;6692;50.710;7.180;2022-09-04T00:24:07;854.20;;;806.73;;
13250;SDS011;6692;50.710;7.180;2022-09-04T00:26:11;866.47;;;817.50;;
13250;SDS011;6692;50.710;7.180;2022-09-04T00:28:20;854.93;;;806.87;;
13250;SDS011;6692;50.710;7.180;2022-09-04T00:30:19;866.20;;;817.17;;
13250;SDS011;6692;50.710;7.180;2022-09-04T00:32:37;864.60;;;815.60;;
13250;SDS011;6692;50.710;7.180;2022-09-04T00:34:57;831.87;;;786.27;;
13250;SDS011;6692;50.710;7.180;2022-09-04T00:37:14;845.63;;;799.00;;
13250;SDS011;6692;50.710;7.180;2022-09-04T00:39:15;881.53;;;831.77;;
13250;SDS011;6692;50.710;7.180;2022-09-04T00:41:23;884.80;;;834.17;;
13250;SDS011;6692;50.710;7.180;2022-09-04T00:43:48;865.97;;;816.77;;
13250;SDS011;6692;50.710;7.180;2022-09-04T00:45:55;857.33;;;810.00;;
13250;SDS011;6692;50.710;7.180;2022-09-04T00:50:14;860.57;;;812.20;;
13250;SDS011;6692;50.710;7.180;2022-09-04T00:52:24;869.93;;;819.67;;
13250;SDS011;6692;50.710;7.180;2022-09-04T00:54:35;865.37;;;816.27;;
13250;SDS011;6692;50.710;7.180;2022-09-04T00:56:53;860.97;;;812.37;;
13250;SDS011;6692;50.710;7.180;2022-09-04T00:59:05;842.57;;;795.93;;
13250;SDS011;6692;50.710;7.180;2022-09-04T01:01:09;840.83;;;794.97;;
13250;SDS011;6692;50.710;7.180;2022-09-04T01:03:13;838.70;;;793.27;;
13250;SDS011;6692;50.710;7.180;2022-09-04T01:07:46;815.03;;;771.43;;
13250;SDS011;6692;50.710;7.180;2022-09-04T01:12:15;828.90;;;783.90;;
13250;SDS011;6692;50.710;7.180;2022-09-04T01:14:26;806.77;;;764.07;;
13250;SDS011;6692;50.710;7.180;2022-09-04T01:16:33;820.73;;;776.77;;
13250;SDS011;6692;50.710;7.180;2022-09-04T01:18:39;819.33;;;776.10;;
13250;SDS011;6692;50.710;7.180;2022-09-04T01:20:44;822.77;;;778.80;;
13250;SDS011;6692;50.710;7.180;2022-09-04T01:25:04;802.30;;;759.83;;
13250;SDS011;6692;50.710;7.180;2022-09-04T01:27:12;821.00;;;776.77;;
13250;SDS011;6692;50.710;7.180;2022-09-04T01:29:14;805.17;;;761.87;;
13250;SDS011;6692;50.710;7.180;2022-09-04T01:33:43;801.83;;;759.87;;
13250;SDS011;6692;50.710;7.180;2022-09-04T01:35:51;800.50;;;758.33;;
13250;SDS011;6692;50.710;7.180;2022-09-04T01:38:00;817.47;;;773.67;;
13250;SDS011;6692;50.710;7.180;2022-09-04T01:40:10;801.27;;;759.03;;
13250;SDS011;6692;50.710;7.180;2022-09-04T01:42:13;806.93;;;764.13;;
13250;SDS011;6692;50.710;7.180;2022-09-04T01:44:14;797.37;;;755.37;;
13250;SDS011;6692;50.710;7.180;2022-09-04T01:46:20;822.13;;;777.67;;
13250;SDS011;6692;50.710;7.180;2022-09-04T01:48:26;815.43;;;772.23;;
13250;SDS011;6692;50.710;7.180;2022-09-04T01:50:23;815.57;;;772.60;;
13250;SDS011;6692;50.710;7.180;2022-09-04T01:54:48;786.83;;;746.30;;
13250;SDS011;6692;50.710;7.180;2022-09-04T01:56:54;787.93;;;746.47;;
13250;SDS011;6692;50.710;7.180;2022-09-04T01:59:10;768.50;;;729.47;;
13250;SDS011;6692;50.710;7.180;2022-09-04T02:01:26;792.10;;;751.30;;
13250;SDS011;6692;50.710;7.180;2022-09-04T02:03:42;779.03;;;738.87;;
13250;SDS011;6692;50.710;7.180;2022-09-04T02:06:20;800.83;;;758.97;;
13250;SDS011;6692;50.710;7.180;2022-09-04T02:08:17;772.17;;;732.87;;
13250;SDS011;6692;50.710;7.180;2022-09-04T02:10:36;782.77;;;742.70;;
13250;SDS011;6692;50.710;7.180;2022-09-04T02:12:52;786.87;;;746.27;;
13250;SDS011;6692;50.710;7.180;2022-09-04T02:14:58;793.87;;;752.40;;
13250;SDS011;6692;50.710;7.180;2022-09-04T02:21:27;780.23;;;740.03;;
13250;SDS011;6692;50.710;7.180;2022-09-04T02:23:32;805.03;;;762.77;;
13250;SDS011;6692;50.710;7.180;2022-09-04T02:25:36;791.73;;;750.17;;
13250;SDS011;6692;50.710;7.180;2022-09-04T02:29:55;797.83;;;756.70;;
13250;SDS011;6692;50.710;7.180;2022-09-04T02:31:58;821.10;;;777.37;;
13250;SDS011;6692;50.710;7.180;2022-09-04T02:33:59;816.43;;;772.80;;
13250;SDS011;6692;50.710;7.180;2022-09-04T02:36:00;814.93;;;771.93;;
13250;SDS011;6692;50.710;7.180;2022-09-04T02:40:32;775.83;;;736.03;;
13250;SDS011;6692;50.710;7.180;2022-09-04T02:42:37;777.10;;;737.27;;
13250;SDS011;6692;50.710;7.180;2022-09-04T02:44:37;797.93;;;755.67;;
13250;SDS011;6692;50.710;7.180;2022-09-04T02:46:43;800.83;;;759.07;;
13250;SDS011;6692;50.710;7.180;2022-09-04T02:48:44;787.37;;;746.33;;
13250;SDS011;6692;50.710;7.180;2022-09-04T02:50:46;786.73;;;745.77;;
13250;SDS011;6692;50.710;7.180;2022-09-04T02:57:15;795.57;;;754.57;;
13250;SDS011;6692;50.710;7.180;2022-09-04T02:59:27;798.03;;;756.07;;
13250;SDS011;6692;50.710;7.180;2022-09-04T03:01:31;794.47;;;753.33;;
13250;SDS011;6692;50.710;7.180;2022-09-04T03:03:36;816.43;;;773.13;;
13250;SDS011;6692;50.710;7.180;2022-09-04T03:05:38;805.50;;;763.10;;
13250;SDS011;6692;50.710;7.180;2022-09-04T03:07:38;802.10;;;759.47;;
13250;SDS011;6692;50.710;7.180;2022-09-04T03:09:41;813.33;;;769.77;;
13250;SDS011;6692;50.710;7.180;2022-09-04T03:11:43;825.00;;;780.80;;
13250;SDS011;6692;50.710;7.180;2022-09-04T03:14:19;803.53;;;760.93;;
13250;SDS011;6692;50.710;7.180;2022-09-04T03:16:21;780.50;;;740.63;;
13250;SDS011;6692;50.710;7.180;2022-09-04T03:18:37;819.37;;;775.67;;
13250;SDS011;6692;50.710;7.180;2022-09-04T03:20:40;801.33;;;759.87;;
13250;SDS011;6692;50.710;7.180;2022-09-04T03:22:42;810.47;;;767.73;;
13250;SDS011;6692;50.710;7.180;2022-09-04T03:26:57;805.07;;;762.77;;
13250;SDS011;6692;50.710;7.180;2022-09-04T03:29:04;817.20;;;773.83;;
13250;SDS011;6692;50.710;7.180;2022-09-04T03:31:23;780.03;;;740.03;;
13250;SDS011;6692;50.710;7.180;2022-09-04T03:33:27;806.17;;;764.23;;
13250;SDS011;6692;50.710;7.180;2022-09-04T03:37:52;785.90;;;745.67;;
13250;SDS011;6692;50.710;7.180;2022-09-04T03:42:24;777.33;;;737.73;;
13250;SDS011;6692;50.710;7.180;2022-09-04T03:44:28;797.17;;;755.40;;
13250;SDS011;6692;50.710;7.180;2022-09-04T03:46:36;793.70;;;752.30;;
13250;SDS011;6692;50.710;7.180;2022-09-04T03:48:50;801.73;;;760.00;;
13250;SDS011;6692;50.710;7.180;2022-09-04T03:50:56;794.73;;;753.43;;
13250;SDS011;6692;50.710;7.180;2022-09-04T03:54:14;797.63;;;755.73;;
13250;SDS011;6692;50.710;7.180;2022-09-04T03:55:29;777.13;;;737.37;;
13250;SDS011;6692;50.710;7.180;2022-09-04T03:57:42;778.83;;;738.63;;
13250;SDS011;6692;50.710;7.180;2022-09-04T03:59:53;777.90;;;737.90;;
13250;SDS011;6692;50.710;7.180;2022-09-04T04:01:55;804.33;;;761.67;;
13250;SDS011;6692;50.710;7.180;2022-09-04T04:04:09;817.53;;;773.27;;
13250;SDS011;6692;50.710;7.180;2022-09-04T04:08:53;775.47;;;736.27;;
13250;SDS011;6692;50.710;7.180;2022-09-04T04:15:39;778.47;;;738.47;;
13250;SDS011;6692;50.710;7.180;2022-09-04T04:20:02;769.10;;;730.70;;
13250;SDS011;6692;50.710;7.180;2022-09-04T04:24:32;778.27;;;738.57;;
13250;SDS011;6692;50.710;7.180;2022-09-04T04:26:46;772.97;;;733.30;;
13250;SDS011;6692;50.710;7.180;2022-09-04T04:28:58;768.67;;;730.17;;
13250;SDS011;6692;50.710;7.180;2022-09-04T04:31:17;763.53;;;724.97;;
13250;SDS011;6692;50.710;7.180;2022-09-04T04:35:26;762.27;;;723.93;;
13250;SDS011;6692;50.710;7.180;2022-09-04T04:37:37;766.03;;;727.13;;
13250;SDS011;6692;50.710;7.180;2022-09-04T04:39:52;763.30;;;724.97;;
13250;SDS011;6692;50.710;7.180;2022-09-04T04:42:04;779.07;;;739.57;;
13250;SDS011;6692;50.710;7.180;2022-09-04T04:44:08;769.20;;;730.50;;
13250;SDS011;6692;50.710;7.180;2022-09-04T04:46:09;775.50;;;735.70;;
13250;SDS011;6692;50.710;7.180;2022-09-04T04:53:13;762.90;;;724.93;;
13250;SDS011;6692;50.710;7.180;2022-09-04T04:59:47;753.03;;;715.93;;
13250;SDS011;6692;50.710;7.180;2022-09-04T05:02:04;749.00;;;711.87;;
13250;SDS011;6692;50.710;7.180;2022-09-04T05:04:16;759.47;;;721.77;;
13250;SDS011;6692;50.710;7.180;2022-09-04T05:06:17;775.23;;;735.93;;
13250;SDS011;6692;50.710;7.180;2022-09-04T05:08:20;780.03;;;740.73;;
13250;SDS011;6692;50.710;7.180;2022-09-04T05:14:49;756.20;;;718.17;;
13250;SDS011;6692;50.710;7.180;2022-09-04T05:16:54;766.33;;;727.63;;
13250;SDS011;6692;50.710;7.180;2022-09-04T05:18:55;773.13;;;733.73;;
13250;SDS011;6692;50.710;7.180;2022-09-04T05:21:05;780.87;;;741.03;;
13250;SDS011;6692;50.710;7.180;2022-09-04T05:25:34;773.67;;;734.57;;
13250;SDS011;6692;50.710;7.180;2022-09-04T05:27:40;762.40;;;724.77;;
13250;SDS011;6692;50.710;7.180;2022-09-04T05:29:42;770.23;;;731.13;;
13250;SDS011;6692;50.710;7.180;2022-09-04T05:32:06;765.23;;;726.60;;
13250;SDS011;6692;50.710;7.180;2022-09-04T05:34:16;772.33;;;733.77;;
13250;SDS011;6692;50.710;7.180;2022-09-04T05:36:18;778.37;;;738.83;;
13250;SDS011;6692;50.710;7.180;2022-09-04T05:38:42;759.20;;;721.40;;
13250;SDS011;6692;50.710;7.180;2022-09-04T05:41:06;760.77;;;722.97;;
13250;SDS011;6692;50.710;7.180;2022-09-04T05:43:29;740.77;;;704.10;;
13250;SDS011;6692;50.710;7.180;2022-09-04T05:45:34;763.53;;;725.47;;
13250;SDS011;6692;50.710;7.180;2022-09-04T05:49:58;761.20;;;723.17;;
13250;SDS011;6692;50.710;7.180;2022-09-04T05:52:21;765.53;;;726.77;;
13250;SDS011;6692;50.710;7.180;2022-09-04T05:54:33;774.97;;;735.23;;
13250;SDS011;6692;50.710;7.180;2022-09-04T06:01:35;750.57;;;713.50;;
13250;SDS011;6692;50.710;7.180;2022-09-04T06:05:57;775.23;;;735.93;;
13250;SDS011;6692;50.710;7.180;2022-09-04T06:08:05;805.77;;;763.80;;
13250;SDS011;6692;50.710;7.180;2022-09-04T06:10:08;812.10;;;769.27;;
13250;SDS011;6692;50.710;7.180;2022-09-04T06:12:18;794.27;;;753.00;;
13250;SDS011;6692;50.710;7.180;2022-09-04T06:14:31;821.77;;;777.53;;
13250;SDS011;6692;50.710;7.180;2022-09-04T06:19:59;821.60;;;777.47;;
13250;SDS011;6692;50.710;7.180;2022-09-04T06:21:14;809.63;;;766.50;;
13250;SDS011;6692;50.710;7.180;2022-09-04T06:25:59;793.40;;;751.43;;
13250;SDS011;6692;50.710;7.180;2022-09-04T06:28:23;795.27;;;754.27;;
13250;SDS011;6692;50.710;7.180;2022-09-04T06:30:19;815.50;;;772.23;;
13250;SDS011;6692;50.710;7.180;2022-09-04T06:32:31;828.77;;;783.87;;
13250;SDS011;6692;50.710;7.180;2022-09-04T06:34:55;788.57;;;746.93;;
13250;SDS011;6692;50.710;7.180;2022-09-04T06:37:17;811.27;;;767.97;;
13250;SDS011;6692;50.710;7.180;2022-09-04T06:41:38;844.90;;;798.50;;
13250;SDS011;6692;50.710;7.180;2022-09-04T06:43:46;846.80;;;800.23;;
13250;SDS011;6692;50.710;7.180;2022-09-04T06:46:06;835.27;;;789.43;;
13250;SDS011;6692;50.710;7.180;2022-09-04T06:48:17;841.97;;;795.67;;
13250;SDS011;6692;50.710;7.180;2022-09-04T06:50:19;859.47;;;811.00;;
13250;SDS011;6692;50.710;7.180;2022-09-04T06:52:24;832.67;;;787.03;;
13250;SDS011;6692;50.710;7.180;2022-09-04T06:54:57;802.93;;;760.17;;
13250;SDS011;6692;50.710;7.180;2022-09-04T06:57:12;790.33;;;748.90;;
13250;SDS011;6692;50.710;7.180;2022-09-04T07:01:36;805.03;;;762.10;;
13250;SDS011;6692;50.710;7.180;2022-09-04T07:03:37;815.50;;;771.17;;
13250;SDS011;6692;50.710;7.180;2022-09-04T07:05:41;831.70;;;786.07;;
13250;SDS011;6692;50.710;7.180;2022-09-04T07:07:51;829.83;;;783.60;;
13250;SDS011;6692;50.710;7.180;2022-09-04T07:09:56;836.97;;;790.53;;
13250;SDS011;6692;50.710;7.180;2022-09-04T07:12:03;844.77;;;797.07;;
13250;SDS011;6692;50.710;7.180;2022-09-04T07:26:04;839.67;;;793.43;;
13250;SDS011;6692;50.710;7.180;2022-09-04T07:28:07;845.83;;;798.87;;
13250;SDS011;6692;50.710;7.180;2022-09-04T07:30:11;846.70;;;799.57;;
13250;SDS011;6692;50.710;7.180;2022-09-04T07:32:12;868.87;;;819.90;;
13250;SDS011;6692;50.710;7.180;2022-09-04T07:34:15;867.83;;;817.90;;
13250;SDS011;6692;50.710;7.180;2022-09-04T07:36:17;885.33;;;834.40;;
13250;SDS011;6692;50.710;7.180;2022-09-04T07:40:30;856.67;;;808.23;;
13250;SDS011;6692;50.710;7.180;2022-09-04T07:42:37;871.33;;;821.33;;
13250;SDS011;6692;50.710;7.180;2022-09-04T07:47:03;856.33;;;807.60;;
13250;SDS011;6692;50.710;7.180;2022-09-04T07:49:09;863.83;;;813.83;;
13250;SDS011;6692;50.710;7.180;2022-09-04T07:51:12;848.17;;;800.47;;
13250;SDS011;6692;50.710;7.180;2022-09-04T07:53:15;871.30;;;821.13;;
13250;SDS011;6692;50.710;7.180;2022-09-04T07:55:16;852.50;;;804.43;;
13250;SDS011;6692;50.710;7.180;2022-09-04T07:57:22;872.43;;;821.53;;
13250;SDS011;6692;50.710;7.180;2022-09-04T07:59:30;891.10;;;838.90;;
13250;SDS011;6692;50.710;7.180;2022-09-04T08:01:40;868.83;;;819.13;;
13250;SDS011;6692;50.710;7.180;2022-09-04T08:06:00;868.53;;;818.63;;
13250;SDS011;6692;50.710;7.180;2022-09-04T08:08:08;869.83;;;820.03;;
13250;SDS011;6692;50.710;7.180;2022-09-04T08:10:20;872.47;;;822.80;;
13250;SDS011;6692;50.710;7.180;2022-09-04T08:14:50;837.30;;;791.23;;
13250;SDS011;6692;50.710;7.180;2022-09-04T08:17:13;862.17;;;812.73;;
13250;SDS011;6692;50.710;7.180;2022-09-04T08:19:09;853.03;;;805.17;;
13250;SDS011;6692;50.710;7.180;2022-09-04T08:21:10;864.77;;;815.57;;
13250;SDS011;6692;50.710;7.180;2022-09-04T08:25:27;872.80;;;822.67;;
13250;SDS011;6692;50.710;7.180;2022-09-04T08:27:35;898.50;;;845.70;;
13250;SDS011;6692;50.710;7.180;2022-09-04T08:29:41;871.57;;;820.47;;
13250;SDS011;6692;50.710;7.180;2022-09-04T08:32:00;878.10;;;827.30;;
13250;SDS011;6692;50.710;7.180;2022-09-04T08:34:22;897.43;;;844.53;;
13250;SDS011;6692;50.710;7.180;2022-09-04T08:36:16;900.00;;;846.83;;
13250;SDS011;6692;50.710;7.180;2022-09-04T08:38:32;888.60;;;837.00;;
13250;SDS011;6692;50.710;7.180;2022-09-04T08:40:50;864.27;;;815.33;;
13250;SDS011;6692;50.710;7.180;2022-09-04T08:42:54;887.97;;;836.00;;
13250;SDS011;6692;50.710;7.180;2022-09-04T08:45:14;905.43;;;850.73;;
13250;SDS011;6692;50.710;7.180;2022-09-04T08:49:34;896.67;;;844.13;;
13250;SDS011;6692;50.710;7.180;2022-09-04T08:51:40;902.50;;;848.93;;
13250;SDS011;6692;50.710;7.180;2022-09-04T08:53:43;922.70;;;865.87;;
13250;SDS011;6692;50.710;7.180;2022-09-04T08:55:46;923.77;;;868.43;;
13250;SDS011;6692;50.710;7.180;2022-09-04T09:00:08;928.20;;;871.57;;
13250;SDS011;6692;50.710;7.180;2022-09-04T09:02:13;914.93;;;860.40;;
13250;SDS011;6692;50.710;7.180;2022-09-04T09:04:36;886.67;;;835.00;;
13250;SDS011;6692;50.710;7.180;2022-09-04T09:06:50;908.37;;;853.70;;
13250;SDS011;6692;50.710;7.180;2022-09-04T09:11:10;894.53;;;842.17;;
13250;SDS011;6692;50.710;7.180;2022-09-04T09:13:28;892.47;;;840.23;;
13250;SDS011;6692;50.710;7.180;2022-09-04T09:15:48;905.80;;;851.50;;
13250;SDS011;6692;50.710;7.180;2022-09-04T09:18:13;884.17;;;832.23;;
13250;SDS011;6692;50.710;7.180;2022-09-04T09:20:17;898.67;;;845.33;;
13250;SDS011;6692;50.710;7.180;2022-09-04T09:22:26;880.73;;;830.13;;
13250;SDS011;6692;50.710;7.180;2022-09-04T09:26:53;853.30;;;806.13;;
13250;SDS011;6692;50.710;7.180;2022-09-04T09:31:23;875.40;;;824.80;;
13250;SDS011;6692;50.710;7.180;2022-09-04T09:33:47;827.27;;;782.63;;
13250;SDS011;6692;50.710;7.180;2022-09-04T09:35:56;878.27;;;827.37;;
13250;SDS011;6692;50.710;7.180;2022-09-04T09:38:11;911.70;;;857.27;;
13250;SDS011;6692;50.710;7.180;2022-09-04T09:40:31;861.83;;;813.67;;
13250;SDS011;6692;50.710;7.180;2022-09-04T09:43:12;853.43;;;805.70;;
13250;SDS011;6692;50.710;7.180;2022-09-04T09:45:32;818.23;;;774.37;;
13250;SDS011;6692;50.710;7.180;2022-09-04T09:47:22;831.73;;;786.50;;
13250;SDS011;6692;50.710;7.180;2022-09-04T09:49:43;843.00;;;796.03;;
13250;SDS011;6692;50.710;7.180;2022-09-04T09:52:00;884.40;;;832.83;;
13250;SDS011;6692;50.710;7.180;2022-09-04T09:54:49;891.73;;;839.93;;
13250;SDS011;6692;50.710;7.180;2022-09-04T10:01:32;828.60;;;784.00;;
13250;SDS011;6692;50.710;7.180;2022-09-04T10:07:09;907.07;;;852.33;;
13250;SDS011;6692;50.710;7.180;2022-09-04T10:08:20;903.23;;;849.13;;
13250;SDS011;6692;50.710;7.180;2022-09-04T10:10:28;938.07;;;880.90;;
13250;SDS011;6692;50.710;7.180;2022-09-04T10:14:51;886.63;;;834.63;;
13250;SDS011;6692;50.710;7.180;2022-09-04T10:17:07;875.90;;;826.27;;
13250;SDS011;6692;50.710;7.180;2022-09-04T10:22:50;816.70;;;773.30;;
13250;SDS011;6692;50.710;7.180;2022-09-04T10:24:08;831.03;;;784.90;;
13250;SDS011;6692;50.710;7.180;2022-09-04T10:26:15;829.43;;;784.13;;
13250;SDS011;6692;50.710;7.180;2022-09-04T10:28:36;866.33;;;816.90;;
13250;SDS011;6692;50.710;7.180;2022-09-04T10:32:56;903.90;;;849.17;;
13250;SDS011;6692;50.710;7.180;2022-09-04T10:35:17;958.10;;;897.57;;
13250;SDS011;6692;50.710;7.180;2022-09-04T10:40:04;877.23;;;827.10;;
13250;SDS011;6692;50.710;7.180;2022-09-04T10:44:39;794.90;;;753.27;;
13250;SDS011;6692;50.710;7.180;2022-09-04T10:46:44;871.33;;;821.17;;
13250;SDS011;6692;50.710;7.180;2022-09-04T10:49:02;840.40;;;793.80;;
13250;SDS011;6692;50.710;7.180;2022-09-04T10:51:09;877.53;;;826.17;;
13250;SDS011;6692;50.710;7.180;2022-09-04T10:53:09;794.93;;;752.60;;
13250;SDS011;6692;50.710;7.180;2022-09-04T10:55:28;734.30;;;698.83;;
13250;SDS011;6692;50.710;7.180;2022-09-04T10:57:43;747.73;;;711.20;;
13250;SDS011;6692;50.710;7.180;2022-09-04T11:00:00;752.13;;;714.70;;
13250;SDS011;6692;50.710;7.180;2022-09-04T11:04:15;763.93;;;726.00;;
13250;SDS011;6692;50.710;7.180;2022-09-04T11:06:49;786.20;;;745.17;;
13250;SDS011;6692;50.710;7.180;2022-09-04T11:09:23;723.40;;;688.53;;
13250;SDS011;6692;50.710;7.180;2022-09-04T11:11:21;719.40;;;685.27;;
13250;SDS011;6692;50.710;7.180;2022-09-04T11:15:49;647.80;;;618.63;;
13250;SDS011;6692;50.710;7.180;2022-09-04T11:17:53;736.07;;;700.17;;
13250;SDS011;6692;50.710;7.180;2022-09-04T11:23:37;727.87;;;692.20;;
13250;SDS011;6692;50.710;7.180;2022-09-04T11:24:50;743.67;;;706.93;;
13250;SDS011;6692;50.710;7.180;2022-09-04T11:29:13;764.23;;;725.20;;
13250;SDS011;6692;50.710;7.180;2022-09-04T11:31:30;796.23;;;754.07;;
13250;SDS011;6692;50.710;7.180;2022-09-04T11:33:51;869.27;;;819.80;;
13250;SDS011;6692;50.710;7.180;2022-09-04T11:36:00;767.93;;;728.57;;
13250;SDS011;6692;50.710;7.180;2022-09-04T11:38:01;776.80;;;737.17;;
13250;SDS011;6692;50.710;7.180;2022-09-04T11:40:18;821.23;;;776.97;;
13250;SDS011;6692;50.710;7.180;2022-09-04T11:42:28;835.87;;;789.30;;
13250;SDS011;6692;50.710;7.180;2022-09-04T11:44:52;927.57;;;870.40;;
13250;SDS011;6692;50.710;7.180;2022-09-04T11:47:12;776.77;;;736.40;;
13250;SDS011;6692;50.710;7.180;2022-09-04T11:49:33;842.83;;;795.53;;
13250;SDS011;6692;50.710;7.180;2022-09-04T11:54:06;870.23;;;819.57;;
13250;SDS011;6692;50.710;7.180;2022-09-04T11:56:14;759.03;;;719.43;;
13250;SDS011;6692;50.710;7.180;2022-09-04T11:58:28;717.63;;;683.30;;
13250;SDS011;6692;50.710;7.180;2022-09-04T12:00:56;706.37;;;672.77;;
13250;SDS011;6692;50.710;7.180;2022-09-04T12:03:02;675.53;;;644.27;;
13250;SDS011;6692;50.710;7.180;2022-09-04T12:05:04;756.63;;;718.13;;
13250;SDS011;6692;50.710;7.180;2022-09-04T12:07:07;773.53;;;734.33;;
13250;SDS011;6692;50.710;7.180;2022-09-04T12:11:52;663.53;;;633.30;;
13250;SDS011;6692;50.710;7.180;2022-09-04T12:14:05;756.43;;;718.20;;
13250;SDS011;6692;50.710;7.180;2022-09-04T12:16:24;833.27;;;787.90;;
13250;SDS011;6692;50.710;7.180;2022-09-04T12:19:39;849.20;;;801.57;;
13250;SDS011;6692;50.710;7.180;2022-09-04T12:23:04;671.90;;;640.80;;
13250;SDS011;6692;50.710;7.180;2022-09-04T12:25:43;635.63;;;607.20;;
13250;SDS011;6692;50.710;7.180;2022-09-04T12:30:00;692.40;;;659.50;;
13250;SDS011;6692;50.710;7.180;2022-09-04T12:36:45;666.03;;;635.43;;
13250;SDS011;6692;50.710;7.180;2022-09-04T12:38:55;754.47;;;716.30;;
13250;SDS011;6692;50.710;7.180;2022-09-04T12:40:56;757.73;;;719.63;;
13250;SDS011;6692;50.710;7.180;2022-09-04T12:45:50;441.93;;;424.37;;
13250;SDS011;6692;50.710;7.180;2022-09-04T12:47:52;450.03;;;431.83;;
13250;SDS011;6692;50.710;7.180;2022-09-04T12:50:15;457.00;;;439.23;;
13250;SDS011;6692;50.710;7.180;2022-09-04T12:52:39;716.57;;;681.80;;
13250;SDS011;6692;50.710;7.180;2022-09-04T12:54:40;721.97;;;686.57;;
13250;SDS011;6692;50.710;7.180;2022-09-04T12:57:32;727.00;;;690.50;;
13250;SDS011;6692;50.710;7.180;2022-09-04T13:01:50;469.00;;;450.13;;
13250;SDS011;6692;50.710;7.180;2022-09-04T13:03:55;431.70;;;415.10;;
13250;SDS011;6692;50.710;7.180;2022-09-04T13:05:58;410.70;;;394.93;;
13250;SDS011;6692;50.710;7.180;2022-09-04T13:08:00;331.27;;;319.20;;
13250;SDS011;6692;50.710;7.180;2022-09-04T13:11:00;506.80;;;485.97;;
13250;SDS011;6692;50.710;7.180;2022-09-04T13:12:45;601.83;;;575.10;;
13250;SDS011;6692;50.710;7.180;2022-09-04T13:14:57;366.97;;;353.07;;
13250;SDS011;6692;50.710;7.180;2022-09-04T13:18:02;395.80;;;380.77;;
13250;SDS011;6692;50.710;7.180;2022-09-04T13:19:18;556.20;;;532.20;;
13250;SDS011;6692;50.710;7.180;2022-09-04T13:23:27;675.83;;;643.57;;
13250;SDS011;6692;50.710;7.180;2022-09-04T13:26:14;539.50;;;516.47;;
13250;SDS011;6692;50.710;7.180;2022-09-04T13:28:07;558.40;;;534.23;;
13250;SDS011;6692;50.710;7.180;2022-09-04T13:30:07;703.53;;;668.37;;
13250;SDS011;6692;50.710;7.180;2022-09-04T13:32:22;665.60;;;633.77;;
13250;SDS011;6692;50.710;7.180;2022-09-04T13:34:31;786.23;;;743.97;;
13250;SDS011;6692;50.710;7.180;2022-09-04T13:36:56;740.27;;;702.53;;
13250;SDS011;6692;50.710;7.180;2022-09-04T13:39:03;701.20;;;666.97;;
13250;SDS011;6692;50.710;7.180;2022-09-04T13:41:07;731.20;;;693.37;;
13250;SDS011;6692;50.710;7.180;2022-09-04T13:43:33;810.63;;;765.10;;
13250;SDS011;6692;50.710;7.180;2022-09-04T13:45:53;730.83;;;693.43;;
13250;SDS011;6692;50.710;7.180;2022-09-04T13:48:11;836.63;;;789.00;;
13250;SDS011;6692;50.710;7.180;2022-09-04T13:50:21;831.17;;;784.37;;
13250;SDS011;6692;50.710;7.180;2022-09-04T13:52:26;829.17;;;782.27;;
13250;SDS011;6692;50.710;7.180;2022-09-04T13:54:28;763.13;;;722.60;;
13250;SDS011;6692;50.710;7.180;2022-09-04T13:56:32;431.10;;;414.30;;
13250;SDS011;6692;50.710;7.180;2022-09-04T13:58:36;659.80;;;628.10;;
13250;SDS011;6692;50.710;7.180;2022-09-04T14:00:43;827.13;;;781.00;;
13250;SDS011;6692;50.710;7.180;2022-09-04T14:02:45;838.77;;;790.33;;
13250;SDS011;6692;50.710;7.180;2022-09-04T14:04:46;897.03;;;842.63;;
13250;SDS011;6692;50.710;7.180;2022-09-04T14:06:47;833.40;;;785.73;;
13250;SDS011;6692;50.710;7.180;2022-09-04T14:08:48;800.10;;;754.67;;
13250;SDS011;6692;50.710;7.180;2022-09-04T14:10:57;804.33;;;760.17;;
13250;SDS011;6692;50.710;7.180;2022-09-04T14:13:02;584.63;;;558.37;;
13250;SDS011;6692;50.710;7.180;2022-09-04T14:15:21;600.20;;;573.13;;
13250;SDS011;6692;50.710;7.180;2022-09-04T14:17:31;708.73;;;673.27;;
13250;SDS011;6692;50.710;7.180;2022-09-04T14:19:33;561.90;;;537.40;;
13250;SDS011;6692;50.710;7.180;2022-09-04T14:21:36;593.13;;;566.77;;
13250;SDS011;6692;50.710;7.180;2022-09-04T14:23:40;762.97;;;723.17;;
13250;SDS011;6692;50.710;7.180;2022-09-04T14:25:57;689.63;;;655.33;;
13250;SDS011;6692;50.710;7.180;2022-09-04T14:28:01;919.50;;;861.83;;
13250;SDS011;6692;50.710;7.180;2022-09-04T14:30:04;997.70;;;929.37;;
13250;SDS011;6692;50.710;7.180;2022-09-04T14:32:37;768.13;;;727.70;;
13250;SDS011;6692;50.710;7.180;2022-09-04T14:34:26;953.43;;;890.73;;
13250;SDS011;6692;50.710;7.180;2022-09-04T14:36:34;1017.40;;;945.83;;
13250;SDS011;6692;50.710;7.180;2022-09-04T14:40:52;585.23;;;559.47;;
13250;SDS011;6692;50.710;7.180;2022-09-04T14:42:54;658.13;;;627.43;;
13250;SDS011;6692;50.710;7.180;2022-09-04T14:47:10;672.77;;;640.43;;
13250;SDS011;6692;50.710;7.180;2022-09-04T14:49:08;650.50;;;620.30;;
13250;SDS011;6692;50.710;7.180;2022-09-04T14:51:40;627.70;;;599.27;;
13250;SDS011;6692;50.710;7.180;2022-09-04T14:53:39;673.77;;;642.03;;
13250;SDS011;6692;50.710;7.180;2022-09-04T14:55:40;654.87;;;624.47;;
13250;SDS011;6692;50.710;7.180;2022-09-04T14:57:47;688.03;;;654.90;;
13250;SDS011;6692;50.710;7.180;2022-09-04T14:59:48;648.90;;;619.13;;
13250;SDS011;6692;50.710;7.180;2022-09-04T15:01:55;727.27;;;691.53;;
13250;SDS011;6692;50.710;7.180;2022-09-04T15:03:57;714.67;;;679.67;;
13250;SDS011;6692;50.710;7.180;2022-09-04T15:05:58;794.33;;;752.07;;
13250;SDS011;6692;50.710;7.180;2022-09-04T15:07:59;722.60;;;686.47;;
13250;SDS011;6692;50.710;7.180;2022-09-04T15:10:04;810.47;;;766.07;;
13250;SDS011;6692;50.710;7.180;2022-09-04T15:12:27;831.20;;;784.63;;
13250;SDS011;6692;50.710;7.180;2022-09-04T15:14:28;764.60;;;724.37;;
13250;SDS011;6692;50.710;7.180;2022-09-04T15:16:33;662.43;;;630.10;;
13250;SDS011;6692;50.710;7.180;2022-09-04T15:18:30;827.20;;;781.60;;
13250;SDS011;6692;50.710;7.180;2022-09-04T15:20:32;825.03;;;779.07;;